Terminal Aerodrome Forecast
Issued by NWS Cleveland, OH

Home | Current Version | Previous Version | Text Only | Print | Product List | Glossary Off
Versions: 1 2 3 4 5 6 7 8 9 10 11 12 13 14 15 16 17

000
FTUS41 KCLE 021355 AAC
TAFCAK
TAF AMD
KCAK 021355Z 0214/0312 33006KT 3SM BR OVC007
      TEMPO 0214/0216 2SM BR OVC003
     FM022300 35007KT P6SM OVC015
     FM030100 02005KT P6SM OVC035
     FM030800 01004KT P6SM OVC025
     FM031000 36004KT P6SM OVC015=

USA.gov is the U.S. government's official web portal to all federal, state and local government web resources and services.